sensor_id;sensor_type;location;lat;lon;timestamp;temperature;humidity
11736;DHT22;5924;51.398;7.088;2023-06-10T00:00:24;17.50;99.90
11736;DHT22;5924;51.398;7.088;2023-06-10T00:02:51;17.00;99.90
11736;DHT22;5924;51.398;7.088;2023-06-10T00:05:17;17.40;1.00
11736;DHT22;5924;51.398;7.088;2023-06-10T00:07:46;17.30;1.00
11736;DHT22;5924;51.398;7.088;2023-06-10T00:10:13;17.30;1.00
11736;DHT22;5924;51.398;7.088;2023-06-10T00:12:39;17.20;1.00
11736;DHT22;5924;51.398;7.088;2023-06-10T00:15:06;17.20;1.00
11736;DHT22;5924;51.398;7.088;2023-06-10T00:17:32;16.60;1.00
11736;DHT22;5924;51.398;7.088;2023-06-10T00:19:58;17.00;1.00
11736;DHT22;5924;51.398;7.088;2023-06-10T00:22:24;16.90;1.00
11736;DHT22;5924;51.398;7.088;2023-06-10T00:24:55;16.90;1.00
11736;DHT22;5924;51.398;7.088;2023-06-10T00:27:22;16.80;1.00
11736;DHT22;5924;51.398;7.088;2023-06-10T00:29:47;16.70;1.00
11736;DHT22;5924;51.398;7.088;2023-06-10T00:32:13;16.70;1.00
11736;DHT22;5924;51.398;7.088;2023-06-10T00:34:39;16.60;1.00
11736;DHT22;5924;51.398;7.088;2023-06-10T00:37:05;16.50;1.00
11736;DHT22;5924;51.398;7.088;2023-06-10T00:39:30;16.50;1.00
11736;DHT22;5924;51.398;7.088;2023-06-10T00:41:56;16.40;1.00
11736;DHT22;5924;51.398;7.088;2023-06-10T00:44:22;16.40;1.00
11736;DHT22;5924;51.398;7.088;2023-06-10T00:46:47;16.40;1.00
11736;DHT22;5924;51.398;7.088;2023-06-10T00:49:16;16.30;1.00
11736;DHT22;5924;51.398;7.088;2023-06-10T00:51:42;16.30;1.00
11736;DHT22;5924;51.398;7.088;2023-06-10T00:54:08;16.30;1.00
11736;DHT22;5924;51.398;7.088;2023-06-10T00:56:34;16.30;1.00
11736;DHT22;5924;51.398;7.088;2023-06-10T00:59:00;16.20;1.00
11736;DHT22;5924;51.398;7.088;2023-06-10T01:01:26;16.40;1.00
11736;DHT22;5924;51.398;7.088;2023-06-10T01:03:52;16.10;1.00
11736;DHT22;5924;51.398;7.088;2023-06-10T01:06:41;16.10;1.00
11736;DHT22;5924;51.398;7.088;2023-06-10T01:09:23;16.00;1.00
11736;DHT22;5924;51.398;7.088;2023-06-10T01:12:01;16.00;1.00
11736;DHT22;5924;51.398;7.088;2023-06-10T01:14:29;15.90;1.00
11736;DHT22;5924;51.398;7.088;2023-06-10T01:16:57;15.90;1.00
11736;DHT22;5924;51.398;7.088;2023-06-10T01:19:23;15.90;1.00
11736;DHT22;5924;51.398;7.088;2023-06-10T01:21:50;15.80;1.00
11736;DHT22;5924;51.398;7.088;2023-06-10T01:24:17;15.70;2.40
11736;DHT22;5924;51.398;7.088;2023-06-10T01:26:44;15.70;5.70
11736;DHT22;5924;51.398;7.088;2023-06-10T01:32:17;15.60;13.70
11736;DHT22;5924;51.398;7.088;2023-06-10T01:34:44;15.50;17.80
11736;DHT22;5924;51.398;7.088;2023-06-10T01:37:13;15.50;20.90
11736;DHT22;5924;51.398;7.088;2023-06-10T01:39:41;15.50;24.00
11736;DHT22;5924;51.398;7.088;2023-06-10T01:42:09;15.50;26.80
11736;DHT22;5924;51.398;7.088;2023-06-10T01:44:35;15.50;29.90
11736;DHT22;5924;51.398;7.088;2023-06-10T01:47:01;15.40;34.60
11736;DHT22;5924;51.398;7.088;2023-06-10T01:49:26;15.40;38.30
11736;DHT22;5924;51.398;7.088;2023-06-10T01:51:54;15.40;43.20
11736;DHT22;5924;51.398;7.088;2023-06-10T01:54:19;15.40;45.80
11736;DHT22;5924;51.398;7.088;2023-06-10T01:56:45;15.30;47.80
11736;DHT22;5924;51.398;7.088;2023-06-10T01:59:11;15.30;49.70
11736;DHT22;5924;51.398;7.088;2023-06-10T02:01:36;15.30;52.70
11736;DHT22;5924;51.398;7.088;2023-06-10T02:04:02;15.30;55.00
11736;DHT22;5924;51.398;7.088;2023-06-10T02:06:28;15.30;55.70
11736;DHT22;5924;51.398;7.088;2023-06-10T02:08:53;15.30;56.70
11736;DHT22;5924;51.398;7.088;2023-06-10T02:11:19;15.30;56.70
11736;DHT22;5924;51.398;7.088;2023-06-10T02:13:45;15.20;56.20
11736;DHT22;5924;51.398;7.088;2023-06-10T02:16:10;15.20;55.90
11736;DHT22;5924;51.398;7.088;2023-06-10T02:18:38;15.10;56.40
11736;DHT22;5924;51.398;7.088;2023-06-10T02:21:06;15.10;57.10
11736;DHT22;5924;51.398;7.088;2023-06-10T02:23:32;15.00;58.30
11736;DHT22;5924;51.398;7.088;2023-06-10T02:25:58;14.90;59.30
11736;DHT22;5924;51.398;7.088;2023-06-10T02:28:23;14.90;61.70
11736;DHT22;5924;51.398;7.088;2023-06-10T02:30:49;14.80;63.90
11736;DHT22;5924;51.398;7.088;2023-06-10T02:33:15;14.80;66.30
11736;DHT22;5924;51.398;7.088;2023-06-10T02:35:41;14.70;68.00
11736;DHT22;5924;51.398;7.088;2023-06-10T02:38:06;14.70;70.50
11736;DHT22;5924;51.398;7.088;2023-06-10T02:40:32;14.70;72.90
11736;DHT22;5924;51.398;7.088;2023-06-10T02:42:58;14.60;75.00
11736;DHT22;5924;51.398;7.088;2023-06-10T02:45:24;14.60;77.10
11736;DHT22;5924;51.398;7.088;2023-06-10T02:47:50;14.60;80.50
11736;DHT22;5924;51.398;7.088;2023-06-10T02:50:15;14.60;83.40
11736;DHT22;5924;51.398;7.088;2023-06-10T02:52:41;14.50;84.80
11736;DHT22;5924;51.398;7.088;2023-06-10T02:55:07;14.50;86.00
11736;DHT22;5924;51.398;7.088;2023-06-10T02:57:33;14.50;86.90
11736;DHT22;5924;51.398;7.088;2023-06-10T02:59:58;14.40;87.90
11736;DHT22;5924;51.398;7.088;2023-06-10T03:02:25;14.40;89.50
11736;DHT22;5924;51.398;7.088;2023-06-10T03:04:57;14.40;90.30
11736;DHT22;5924;51.398;7.088;2023-06-10T03:07:23;14.40;90.90
11736;DHT22;5924;51.398;7.088;2023-06-10T03:09:50;14.40;91.20
11736;DHT22;5924;51.398;7.088;2023-06-10T03:12:16;14.30;91.20
11736;DHT22;5924;51.398;7.088;2023-06-10T03:14:41;14.30;92.10
11736;DHT22;5924;51.398;7.088;2023-06-10T03:17:07;14.30;92.60
11736;DHT22;5924;51.398;7.088;2023-06-10T03:19:34;14.30;93.20
11736;DHT22;5924;51.398;7.088;2023-06-10T03:22:14;14.50;94.00
11736;DHT22;5924;51.398;7.088;2023-06-10T03:24:41;14.20;94.50
11736;DHT22;5924;51.398;7.088;2023-06-10T03:27:10;14.20;95.00
11736;DHT22;5924;51.398;7.088;2023-06-10T03:29:37;14.20;95.40
11736;DHT22;5924;51.398;7.088;2023-06-10T03:32:03;14.10;96.00
11736;DHT22;5924;51.398;7.088;2023-06-10T03:34:29;14.10;96.50
11736;DHT22;5924;51.398;7.088;2023-06-10T03:36:58;14.10;97.00
11736;DHT22;5924;51.398;7.088;2023-06-10T03:39:25;14.10;97.50
11736;DHT22;5924;51.398;7.088;2023-06-10T03:41:51;14.10;98.40
11736;DHT22;5924;51.398;7.088;2023-06-10T03:44:16;14.00;98.80
11736;DHT22;5924;51.398;7.088;2023-06-10T03:46:42;14.00;99.60
11736;DHT22;5924;51.398;7.088;2023-06-10T03:49:08;14.00;99.80
11736;DHT22;5924;51.398;7.088;2023-06-10T03:51:36;14.00;99.90
11736;DHT22;5924;51.398;7.088;2023-06-10T03:54:02;14.00;99.90
11736;DHT22;5924;51.398;7.088;2023-06-10T03:56:28;14.00;99.90
11736;DHT22;5924;51.398;7.088;2023-06-10T03:58:54;14.00;99.90
11736;DHT22;5924;51.398;7.088;2023-06-10T04:01:20;14.10;99.90
11736;DHT22;5924;51.398;7.088;2023-06-10T04:03:47;14.10;99.90
11736;DHT22;5924;51.398;7.088;2023-06-10T04:06:14;14.10;99.90
11736;DHT22;5924;51.398;7.088;2023-06-10T04:08:40;14.00;99.90
11736;DHT22;5924;51.398;7.088;2023-06-10T04:11:05;14.10;99.90
11736;DHT22;5924;51.398;7.088;2023-06-10T04:13:31;14.10;99.90
11736;DHT22;5924;51.398;7.088;2023-06-10T04:15:57;14.10;99.90
11736;DHT22;5924;51.398;7.088;2023-06-10T04:18:23;14.10;99.90
11736;DHT22;5924;51.398;7.088;2023-06-10T04:20:48;14.10;99.90
11736;DHT22;5924;51.398;7.088;2023-06-10T04:23:14;14.10;99.90
11736;DHT22;5924;51.398;7.088;2023-06-10T04:25:40;13.20;99.90
11736;DHT22;5924;51.398;7.088;2023-06-10T04:28:05;14.20;99.90
11736;DHT22;5924;51.398;7.088;2023-06-10T04:30:31;14.10;99.90
11736;DHT22;5924;51.398;7.088;2023-06-10T04:32:57;14.20;99.90
11736;DHT22;5924;51.398;7.088;2023-06-10T04:35:23;14.20;99.90
11736;DHT22;5924;51.398;7.088;2023-06-10T04:37:48;14.20;99.90
11736;DHT22;5924;51.398;7.088;2023-06-10T04:40:14;14.20;99.90
11736;DHT22;5924;51.398;7.088;2023-06-10T04:42:41;14.30;99.90
11736;DHT22;5924;51.398;7.088;2023-06-10T04:45:09;14.30;99.90
11736;DHT22;5924;51.398;7.088;2023-06-10T04:47:35;14.40;99.90
11736;DHT22;5924;51.398;7.088;2023-06-10T04:50:01;14.50;99.90
11736;DHT22;5924;51.398;7.088;2023-06-10T04:52:27;14.50;99.90
11736;DHT22;5924;51.398;7.088;2023-06-10T04:54:53;14.60;99.90
11736;DHT22;5924;51.398;7.088;2023-06-10T04:57:19;14.60;99.90
11736;DHT22;5924;51.398;7.088;2023-06-10T04:59:46;14.70;99.90
11736;DHT22;5924;51.398;7.088;2023-06-10T05:02:11;14.70;99.90
11736;DHT22;5924;51.398;7.088;2023-06-10T05:04:37;14.80;99.90
11736;DHT22;5924;51.398;7.088;2023-06-10T05:07:03;14.80;99.90
11736;DHT22;5924;51.398;7.088;2023-06-10T05:09:29;14.90;99.90
11736;DHT22;5924;51.398;7.088;2023-06-10T05:11:55;14.90;99.50
11736;DHT22;5924;51.398;7.088;2023-06-10T05:14:21;15.00;98.80
11736;DHT22;5924;51.398;7.088;2023-06-10T05:16:48;15.10;98.00
11736;DHT22;5924;51.398;7.088;2023-06-10T05:19:14;15.10;97.40
11736;DHT22;5924;51.398;7.088;2023-06-10T05:21:42;15.20;96.70
11736;DHT22;5924;51.398;7.088;2023-06-10T05:24:08;15.30;96.30
11736;DHT22;5924;51.398;7.088;2023-06-10T05:26:34;15.40;97.00
11736;DHT22;5924;51.398;7.088;2023-06-10T05:29:03;15.50;95.80
11736;DHT22;5924;51.398;7.088;2023-06-10T05:31:29;15.60;95.50
11736;DHT22;5924;51.398;7.088;2023-06-10T05:33:55;15.70;94.70
11736;DHT22;5924;51.398;7.088;2023-06-10T05:36:21;15.70;95.00
11736;DHT22;5924;51.398;7.088;2023-06-10T05:38:47;15.90;93.70
11736;DHT22;5924;51.398;7.088;2023-06-10T05:41:12;16.00;92.50
11736;DHT22;5924;51.398;7.088;2023-06-10T05:43:38;16.10;90.00
11736;DHT22;5924;51.398;7.088;2023-06-10T05:46:04;16.30;80.50
11736;DHT22;5924;51.398;7.088;2023-06-10T05:48:29;16.40;76.40
11736;DHT22;5924;51.398;7.088;2023-06-10T05:50:55;16.50;68.70
11736;DHT22;5924;51.398;7.088;2023-06-10T05:53:21;16.60;63.80
11736;DHT22;5924;51.398;7.088;2023-06-10T05:55:46;15.80;52.90
11736;DHT22;5924;51.398;7.088;2023-06-10T05:58:13;16.90;49.00
11736;DHT22;5924;51.398;7.088;2023-06-10T06:00:39;17.00;43.80
11736;DHT22;5924;51.398;7.088;2023-06-10T06:03:09;17.10;34.30
11736;DHT22;5924;51.398;7.088;2023-06-10T06:05:35;17.20;26.60
11736;DHT22;5924;51.398;7.088;2023-06-10T06:08:03;17.30;14.80
11736;DHT22;5924;51.398;7.088;2023-06-10T06:10:29;17.40;9.70
11736;DHT22;5924;51.398;7.088;2023-06-10T06:12:55;17.50;1.00
11736;DHT22;5924;51.398;7.088;2023-06-10T06:15:20;17.60;1.00
11736;DHT22;5924;51.398;7.088;2023-06-10T06:17:46;17.80;1.00
11736;DHT22;5924;51.398;7.088;2023-06-10T06:20:12;17.90;1.00
11736;DHT22;5924;51.398;7.088;2023-06-10T06:22:37;18.00;1.00
11736;DHT22;5924;51.398;7.088;2023-06-10T06:25:03;18.10;1.00
11736;DHT22;5924;51.398;7.088;2023-06-10T06:27:29;18.20;1.00
11736;DHT22;5924;51.398;7.088;2023-06-10T06:29:55;18.30;1.00
11736;DHT22;5924;51.398;7.088;2023-06-10T06:32:20;18.40;1.00
11736;DHT22;5924;51.398;7.088;2023-06-10T06:34:48;18.50;1.00
11736;DHT22;5924;51.398;7.088;2023-06-10T06:37:25;18.60;1.00
11736;DHT22;5924;51.398;7.088;2023-06-10T06:39:52;18.70;1.00
11736;DHT22;5924;51.398;7.088;2023-06-10T06:42:17;18.80;1.00
11736;DHT22;5924;51.398;7.088;2023-06-10T06:44:44;18.90;1.00
11736;DHT22;5924;51.398;7.088;2023-06-10T06:47:09;19.00;1.00
11736;DHT22;5924;51.398;7.088;2023-06-10T06:49:35;19.10;1.00
11736;DHT22;5924;51.398;7.088;2023-06-10T06:52:01;19.20;1.00
11736;DHT22;5924;51.398;7.088;2023-06-10T06:54:27;19.30;1.00
11736;DHT22;5924;51.398;7.088;2023-06-10T06:56:52;19.40;1.00
11736;DHT22;5924;51.398;7.088;2023-06-10T06:59:18;19.50;1.00
11736;DHT22;5924;51.398;7.088;2023-06-10T07:01:45;19.60;99.90
11736;DHT22;5924;51.398;7.088;2023-06-10T07:04:11;19.70;99.90
11736;DHT22;5924;51.398;7.088;2023-06-10T07:06:36;19.80;99.90
11736;DHT22;5924;51.398;7.088;2023-06-10T07:09:04;19.90;99.90
11736;DHT22;5924;51.398;7.088;2023-06-10T07:11:29;20.00;99.90
11736;DHT22;5924;51.398;7.088;2023-06-10T07:13:56;20.10;86.80
11736;DHT22;5924;51.398;7.088;2023-06-10T07:16:21;20.30;99.90
11736;DHT22;5924;51.398;7.088;2023-06-10T07:18:47;20.30;99.90
11736;DHT22;5924;51.398;7.088;2023-06-10T07:21:13;20.40;1.00
11736;DHT22;5924;51.398;7.088;2023-06-10T07:23:42;20.60;1.00
11736;DHT22;5924;51.398;7.088;2023-06-10T07:26:08;20.70;99.90
11736;DHT22;5924;51.398;7.088;2023-06-10T07:28:37;20.90;99.90
11736;DHT22;5924;51.398;7.088;2023-06-10T07:31:03;21.10;1.00
11736;DHT22;5924;51.398;7.088;2023-06-10T07:33:29;21.20;99.90
11736;DHT22;5924;51.398;7.088;2023-06-10T07:35:57;20.80;99.90
11736;DHT22;5924;51.398;7.088;2023-06-10T07:38:24;21.50;34.40
11736;DHT22;5924;51.398;7.088;2023-06-10T07:40:50;21.60;36.80
11736;DHT22;5924;51.398;7.088;2023-06-10T07:43:15;21.80;1.00
11736;DHT22;5924;51.398;7.088;2023-06-10T07:45:41;21.90;34.50
11736;DHT22;5924;51.398;7.088;2023-06-10T07:48:07;22.00;1.00
11736;DHT22;5924;51.398;7.088;2023-06-10T07:50:33;22.10;1.00
11736;DHT22;5924;51.398;7.088;2023-06-10T07:52:58;22.20;1.00
11736;DHT22;5924;51.398;7.088;2023-06-10T07:55:24;22.40;1.00
11736;DHT22;5924;51.398;7.088;2023-06-10T07:57:52;22.50;1.00
11736;DHT22;5924;51.398;7.088;2023-06-10T08:00:18;22.70;1.00
11736;DHT22;5924;51.398;7.088;2023-06-10T08:02:44;22.80;1.00
11736;DHT22;5924;51.398;7.088;2023-06-10T08:05:09;23.00;1.00
11736;DHT22;5924;51.398;7.088;2023-06-10T08:07:35;23.20;1.00
11736;DHT22;5924;51.398;7.088;2023-06-10T08:10:01;23.40;1.00
11736;DHT22;5924;51.398;7.088;2023-06-10T08:12:27;23.50;1.00
11736;DHT22;5924;51.398;7.088;2023-06-10T08:14:53;23.60;1.00
11736;DHT22;5924;51.398;7.088;2023-06-10T08:17:19;23.70;1.00
11736;DHT22;5924;51.398;7.088;2023-06-10T08:19:44;23.80;1.00
11736;DHT22;5924;51.398;7.088;2023-06-10T08:22:10;23.80;1.00
11736;DHT22;5924;51.398;7.088;2023-06-10T08:24:36;24.00;1.00
11736;DHT22;5924;51.398;7.088;2023-06-10T08:27:01;24.10;1.00
11736;DHT22;5924;51.398;7.088;2023-06-10T08:29:27;24.30;1.00
11736;DHT22;5924;51.398;7.088;2023-06-10T08:31:53;24.40;1.00
11736;DHT22;5924;51.398;7.088;2023-06-10T08:34:18;24.60;1.00
11736;DHT22;5924;51.398;7.088;2023-06-10T08:36:44;24.70;1.00
11736;DHT22;5924;51.398;7.088;2023-06-10T08:39:10;25.50;1.00
11736;DHT22;5924;51.398;7.088;2023-06-10T08:41:42;25.00;1.00
11736;DHT22;5924;51.398;7.088;2023-06-10T08:46:36;25.10;1.00
11736;DHT22;5924;51.398;7.088;2023-06-10T08:49:06;25.20;1.00
11736;DHT22;5924;51.398;7.088;2023-06-10T08:51:35;25.20;1.00
11736;DHT22;5924;51.398;7.088;2023-06-10T08:54:11;25.20;1.00
11736;DHT22;5924;51.398;7.088;2023-06-10T08:56:41;25.30;1.00
11736;DHT22;5924;51.398;7.088;2023-06-10T08:59:08;25.40;1.00
11736;DHT22;5924;51.398;7.088;2023-06-10T09:01:34;25.60;1.00
11736;DHT22;5924;51.398;7.088;2023-06-10T09:04:01;25.60;1.00
11736;DHT22;5924;51.398;7.088;2023-06-10T09:06:28;25.70;1.00
11736;DHT22;5924;51.398;7.088;2023-06-10T09:08:54;25.80;1.00
11736;DHT22;5924;51.398;7.088;2023-06-10T09:11:20;25.90;1.00
11736;DHT22;5924;51.398;7.088;2023-06-10T09:13:46;26.00;1.00
11736;DHT22;5924;51.398;7.088;2023-06-10T09:16:11;26.30;1.00
11736;DHT22;5924;51.398;7.088;2023-06-10T09:18:38;26.30;1.00
11736;DHT22;5924;51.398;7.088;2023-06-10T09:21:04;26.40;1.00
11736;DHT22;5924;51.398;7.088;2023-06-10T09:23:29;26.50;1.00
11736;DHT22;5924;51.398;7.088;2023-06-10T09:25:59;26.50;1.00
11736;DHT22;5924;51.398;7.088;2023-06-10T09:28:25;26.60;1.00
11736;DHT22;5924;51.398;7.088;2023-06-10T09:31:03;26.80;1.00
11736;DHT22;5924;51.398;7.088;2023-06-10T09:33:30;26.80;1.00
11736;DHT22;5924;51.398;7.088;2023-06-10T09:35:55;27.00;1.00
11736;DHT22;5924;51.398;7.088;2023-06-10T09:38:30;27.10;1.00
11736;DHT22;5924;51.398;7.088;2023-06-10T09:40:57;27.20;1.00
11736;DHT22;5924;51.398;7.088;2023-06-10T09:43:23;27.30;1.00
11736;DHT22;5924;51.398;7.088;2023-06-10T09:45:51;27.30;1.00
11736;DHT22;5924;51.398;7.088;2023-06-10T09:48:21;27.20;1.00
11736;DHT22;5924;51.398;7.088;2023-06-10T09:50:48;27.20;1.00
11736;DHT22;5924;51.398;7.088;2023-06-10T09:53:14;27.30;1.00
11736;DHT22;5924;51.398;7.088;2023-06-10T09:55:43;27.40;1.00
11736;DHT22;5924;51.398;7.088;2023-06-10T09:58:09;27.50;1.00
11736;DHT22;5924;51.398;7.088;2023-06-10T10:00:35;27.70;1.00
11736;DHT22;5924;51.398;7.088;2023-06-10T10:03:02;27.90;1.00
11736;DHT22;5924;51.398;7.088;2023-06-10T10:05:28;28.10;1.00
11736;DHT22;5924;51.398;7.088;2023-06-10T10:07:55;28.30;1.00
11736;DHT22;5924;51.398;7.088;2023-06-10T10:10:22;28.30;1.00
11736;DHT22;5924;51.398;7.088;2023-06-10T10:12:50;28.40;1.00
11736;DHT22;5924;51.398;7.088;2023-06-10T10:15:17;28.50;1.00
11736;DHT22;5924;51.398;7.088;2023-06-10T10:20:13;28.40;1.00
11736;DHT22;5924;51.398;7.088;2023-06-10T10:22:41;28.60;1.00
11736;DHT22;5924;51.398;7.088;2023-06-10T10:25:13;28.70;1.00
11736;DHT22;5924;51.398;7.088;2023-06-10T10:27:51;28.80;1.00
11736;DHT22;5924;51.398;7.088;2023-06-10T10:30:17;28.90;1.00
11736;DHT22;5924;51.398;7.088;2023-06-10T10:33:04;28.90;1.00
11736;DHT22;5924;51.398;7.088;2023-06-10T10:35:31;28.90;1.00
11736;DHT22;5924;51.398;7.088;2023-06-10T10:37:58;28.80;1.00
11736;DHT22;5924;51.398;7.088;2023-06-10T10:40:25;28.90;1.00
11736;DHT22;5924;51.398;7.088;2023-06-10T10:42:52;29.00;1.00
11736;DHT22;5924;51.398;7.088;2023-06-10T10:45:18;29.20;1.00
11736;DHT22;5924;51.398;7.088;2023-06-10T10:47:52;29.20;1.00
11736;DHT22;5924;51.398;7.088;2023-06-10T10:50:20;29.30;1.00
11736;DHT22;5924;51.398;7.088;2023-06-10T10:52:59;29.40;1.00
11736;DHT22;5924;51.398;7.088;2023-06-10T10:55:26;29.40;1.00
11736;DHT22;5924;51.398;7.088;2023-06-10T10:58:06;29.40;1.00
11736;DHT22;5924;51.398;7.088;2023-06-10T11:00:36;29.40;1.00
11736;DHT22;5924;51.398;7.088;2023-06-10T11:05:42;29.60;1.00
11736;DHT22;5924;51.398;7.088;2023-06-10T11:08:10;29.70;1.00
11736;DHT22;5924;51.398;7.088;2023-06-10T11:10:37;29.70;1.00
11736;DHT22;5924;51.398;7.088;2023-06-10T11:15:38;30.00;1.00
11736;DHT22;5924;51.398;7.088;2023-06-10T11:29:02;29.90;1.00
11736;DHT22;5924;51.398;7.088;2023-06-10T11:31:40;30.10;1.00
11736;DHT22;5924;51.398;7.088;2023-06-10T11:34:06;30.00;1.00
11736;DHT22;5924;51.398;7.088;2023-06-10T11:36:34;30.00;1.00
11736;DHT22;5924;51.398;7.088;2023-06-10T11:39:06;30.20;1.00
11736;DHT22;5924;51.398;7.088;2023-06-10T11:41:32;30.40;1.00
11736;DHT22;5924;51.398;7.088;2023-06-10T11:46:29;30.30;1.00
11736;DHT22;5924;51.398;7.088;2023-06-10T11:48:57;30.00;1.00
11736;DHT22;5924;51.398;7.088;2023-06-10T11:51:28;30.20;1.00
11736;DHT22;5924;51.398;7.088;2023-06-10T11:53:54;30.60;1.00
11736;DHT22;5924;51.398;7.088;2023-06-10T11:56:21;31.20;1.00
11736;DHT22;5924;51.398;7.088;2023-06-10T11:58:53;31.30;1.00
11736;DHT22;5924;51.398;7.088;2023-06-10T12:01:21;31.20;1.00
11736;DHT22;5924;51.398;7.088;2023-06-10T12:03:47;31.20;1.00
11736;DHT22;5924;51.398;7.088;2023-06-10T12:06:13;31.40;1.00
11736;DHT22;5924;51.398;7.088;2023-06-10T12:08:42;31.50;1.00
11736;DHT22;5924;51.398;7.088;2023-06-10T12:11:08;31.80;1.00
11736;DHT22;5924;51.398;7.088;2023-06-10T12:13:34;32.10;1.00
11736;DHT22;5924;51.398;7.088;2023-06-10T12:16:07;32.40;1.00
11736;DHT22;5924;51.398;7.088;2023-06-10T12:18:34;32.90;1.00
11736;DHT22;5924;51.398;7.088;2023-06-10T12:20:59;33.00;1.00
11736;DHT22;5924;51.398;7.088;2023-06-10T12:23:25;32.80;1.00
11736;DHT22;5924;51.398;7.088;2023-06-10T12:25:53;33.00;1.00
11736;DHT22;5924;51.398;7.088;2023-06-10T12:28:25;33.30;1.00
11736;DHT22;5924;51.398;7.088;2023-06-10T12:30:52;33.40;1.00
11736;DHT22;5924;51.398;7.088;2023-06-10T12:33:31;33.50;1.00
11736;DHT22;5924;51.398;7.088;2023-06-10T12:35:56;33.60;1.00
11736;DHT22;5924;51.398;7.088;2023-06-10T12:38:23;33.90;1.00
11736;DHT22;5924;51.398;7.088;2023-06-10T12:41:02;34.30;1.00
11736;DHT22;5924;51.398;7.088;2023-06-10T12:43:31;34.30;1.00
11736;DHT22;5924;51.398;7.088;2023-06-10T12:46:09;34.10;1.00
11736;DHT22;5924;51.398;7.088;2023-06-10T12:48:35;34.00;1.00
11736;DHT22;5924;51.398;7.088;2023-06-10T12:51:01;34.00;1.00
11736;DHT22;5924;51.398;7.088;2023-06-10T12:53:26;34.10;1.00
11736;DHT22;5924;51.398;7.088;2023-06-10T12:55:52;34.50;1.00
11736;DHT22;5924;51.398;7.088;2023-06-10T12:58:21;34.50;1.00
11736;DHT22;5924;51.398;7.088;2023-06-10T13:00:48;34.60;1.00
11736;DHT22;5924;51.398;7.088;2023-06-10T13:03:14;35.00;1.00
11736;DHT22;5924;51.398;7.088;2023-06-10T13:05:40;35.20;1.00
11736;DHT22;5924;51.398;7.088;2023-06-10T13:08:07;35.30;1.00
11736;DHT22;5924;51.398;7.088;2023-06-10T13:10:33;35.80;1.00
11736;DHT22;5924;51.398;7.088;2023-06-10T13:13:00;36.10;1.00
11736;DHT22;5924;51.398;7.088;2023-06-10T13:15:26;36.10;1.00
11736;DHT22;5924;51.398;7.088;2023-06-10T13:17:52;36.30;1.00
11736;DHT22;5924;51.398;7.088;2023-06-10T13:20:18;36.40;1.00
11736;DHT22;5924;51.398;7.088;2023-06-10T13:22:46;36.50;1.00
11736;DHT22;5924;51.398;7.088;2023-06-10T13:25:12;36.60;1.00
11736;DHT22;5924;51.398;7.088;2023-06-10T13:27:38;36.60;1.00
11736;DHT22;5924;51.398;7.088;2023-06-10T13:30:08;36.40;1.00
11736;DHT22;5924;51.398;7.088;2023-06-10T13:32:35;35.70;1.00
11736;DHT22;5924;51.398;7.088;2023-06-10T13:35:01;35.40;1.00
11736;DHT22;5924;51.398;7.088;2023-06-10T13:37:27;35.70;1.00
11736;DHT22;5924;51.398;7.088;2023-06-10T13:39:52;35.90;1.00
11736;DHT22;5924;51.398;7.088;2023-06-10T13:42:19;36.10;1.00
11736;DHT22;5924;51.398;7.088;2023-06-10T13:44:45;35.80;1.00
11736;DHT22;5924;51.398;7.088;2023-06-10T13:47:11;35.80;1.00
11736;DHT22;5924;51.398;7.088;2023-06-10T13:49:36;35.90;1.00
11736;DHT22;5924;51.398;7.088;2023-06-10T13:52:03;36.20;1.00
11736;DHT22;5924;51.398;7.088;2023-06-10T13:54:28;35.50;1.00
11736;DHT22;5924;51.398;7.088;2023-06-10T13:56:54;35.20;1.00
11736;DHT22;5924;51.398;7.088;2023-06-10T13:59:20;35.20;1.00
11736;DHT22;5924;51.398;7.088;2023-06-10T14:01:46;35.70;1.00
11736;DHT22;5924;51.398;7.088;2023-06-10T14:04:12;36.30;1.00
11736;DHT22;5924;51.398;7.088;2023-06-10T14:06:38;36.40;1.00
11736;DHT22;5924;51.398;7.088;2023-06-10T14:09:04;36.70;1.00
11736;DHT22;5924;51.398;7.088;2023-06-10T14:11:30;36.60;1.00
11736;DHT22;5924;51.398;7.088;2023-06-10T14:13:56;36.60;1.00
11736;DHT22;5924;51.398;7.088;2023-06-10T14:16:23;36.60;1.00
11736;DHT22;5924;51.398;7.088;2023-06-10T14:18:49;36.40;1.00
11736;DHT22;5924;51.398;7.088;2023-06-10T14:21:16;36.40;1.00
11736;DHT22;5924;51.398;7.088;2023-06-10T14:23:42;35.50;1.00
11736;DHT22;5924;51.398;7.088;2023-06-10T14:26:09;36.80;1.00
11736;DHT22;5924;51.398;7.088;2023-06-10T14:28:34;37.10;1.00
11736;DHT22;5924;51.398;7.088;2023-06-10T14:31:00;37.30;1.00
11736;DHT22;5924;51.398;7.088;2023-06-10T14:33:25;37.10;1.00
11736;DHT22;5924;51.398;7.088;2023-06-10T14:35:51;37.10;1.00
11736;DHT22;5924;51.398;7.088;2023-06-10T14:38:17;36.80;1.00
11736;DHT22;5924;51.398;7.088;2023-06-10T14:40:42;36.70;1.00
11736;DHT22;5924;51.398;7.088;2023-06-10T14:43:08;36.80;1.00
11736;DHT22;5924;51.398;7.088;2023-06-10T14:45:38;36.90;1.00
11736;DHT22;5924;51.398;7.088;2023-06-10T14:48:04;37.00;1.00
11736;DHT22;5924;51.398;7.088;2023-06-10T14:50:30;36.50;1.00
11736;DHT22;5924;51.398;7.088;2023-06-10T14:52:56;35.70;1.00
11736;DHT22;5924;51.398;7.088;2023-06-10T14:55:21;36.40;1.00
11736;DHT22;5924;51.398;7.088;2023-06-10T14:57:50;36.80;1.00
11736;DHT22;5924;51.398;7.088;2023-06-10T15:00:16;37.00;1.00
11736;DHT22;5924;51.398;7.088;2023-06-10T15:02:46;37.20;1.00
11736;DHT22;5924;51.398;7.088;2023-06-10T15:05:15;37.40;1.00
11736;DHT22;5924;51.398;7.088;2023-06-10T15:07:44;37.50;1.00
11736;DHT22;5924;51.398;7.088;2023-06-10T15:10:10;37.30;1.00
11736;DHT22;5924;51.398;7.088;2023-06-10T15:12:35;37.20;1.00
11736;DHT22;5924;51.398;7.088;2023-06-10T15:15:02;37.10;1.00
11736;DHT22;5924;51.398;7.088;2023-06-10T15:17:28;36.90;1.00
11736;DHT22;5924;51.398;7.088;2023-06-10T15:19:54;37.20;1.00
11736;DHT22;5924;51.398;7.088;2023-06-10T15:22:20;37.50;1.00
11736;DHT22;5924;51.398;7.088;2023-06-10T15:24:45;37.70;1.00
11736;DHT22;5924;51.398;7.088;2023-06-10T15:27:11;37.90;1.00
11736;DHT22;5924;51.398;7.088;2023-06-10T15:29:37;38.10;1.00
11736;DHT22;5924;51.398;7.088;2023-06-10T15:32:02;38.20;1.00
11736;DHT22;5924;51.398;7.088;2023-06-10T15:34:28;38.10;1.00
11736;DHT22;5924;51.398;7.088;2023-06-10T15:36:54;38.20;1.00
11736;DHT22;5924;51.398;7.088;2023-06-10T15:39:20;38.40;1.00
11736;DHT22;5924;51.398;7.088;2023-06-10T15:41:45;38.60;1.00
11736;DHT22;5924;51.398;7.088;2023-06-10T15:44:11;38.50;1.00
11736;DHT22;5924;51.398;7.088;2023-06-10T15:46:37;38.50;1.00
11736;DHT22;5924;51.398;7.088;2023-06-10T15:49:03;38.20;1.00
11736;DHT22;5924;51.398;7.088;2023-06-10T15:51:29;38.00;1.00
11736;DHT22;5924;51.398;7.088;2023-06-10T15:53:55;37.80;1.00
11736;DHT22;5924;51.398;7.088;2023-06-10T15:56:21;37.70;1.00
11736;DHT22;5924;51.398;7.088;2023-06-10T15:58:47;38.00;1.00
11736;DHT22;5924;51.398;7.088;2023-06-10T16:01:12;38.30;1.00
11736;DHT22;5924;51.398;7.088;2023-06-10T16:03:40;38.70;1.00
11736;DHT22;5924;51.398;7.088;2023-06-10T16:06:06;39.10;1.00
11736;DHT22;5924;51.398;7.088;2023-06-10T16:08:32;38.80;1.00
11736;DHT22;5924;51.398;7.088;2023-06-10T16:10:57;38.90;1.00
11736;DHT22;5924;51.398;7.088;2023-06-10T16:13:23;38.90;1.00
11736;DHT22;5924;51.398;7.088;2023-06-10T16:15:49;38.30;1.00
11736;DHT22;5924;51.398;7.088;2023-06-10T16:18:14;37.10;1.00
11736;DHT22;5924;51.398;7.088;2023-06-10T16:20:40;36.20;1.00